CFB Trenton


Codes: CYTR/YTR
Name: CFB Trenton
City: Trenton
Country: Canada
Elevation: 283 ft.
Wikipedia:

Photos at CFB Trenton


   Photos courtesy of SpottingLog. You can add your own sightings and photos by signing up for a free trial today.



No photos found.

Weather at CFB Trenton


Time (UTC)DescriptionTempratureWindCloud coverageVisibilityPressureHumidity
25-Jun-2024 15:00Scattered Clouds21°C13 mph, SW43%10000m1012hPa77%
25-Jun-2024 18:00Broken Clouds22°C11 mph, SW67%10000m1010hPa72%
25-Jun-2024 21:00Light Rain19°C4 mph, SW100%10000m1007hPa93%
26-Jun-2024 00:00Light Rain20°C18 mph, SW100%10000m1005hPa85%
26-Jun-2024 03:00Light Rain19°C13 mph, SW94%10000m1005hPa97%
26-Jun-2024 06:00Light Rain20°C11 mph, W97%10000m1005hPa95%
26-Jun-2024 09:00Broken Clouds17°C9 mph, W63%10000m1005hPa94%
26-Jun-2024 12:00Broken Clouds19°C9 mph, W81%10000m1007hPa89%
26-Jun-2024 15:00Overcast Clouds21°C11 mph, SW100%10000m1007hPa77%
26-Jun-2024 18:00Overcast Clouds23°C9 mph, SW100%10000m1006hPa70%
26-Jun-2024 21:00Light Rain19°C9 mph, NW100%7049m1005hPa87%
27-Jun-2024 00:00Moderate Rain17°C4 mph, SE100%10000m1004hPa95%
27-Jun-2024 03:00Light Rain16°C7 mph, W100%10000m1005hPa95%
27-Jun-2024 06:00Broken Clouds14°C7 mph, N76%10000m1005hPa96%
27-Jun-2024 09:00Scattered Clouds13°C7 mph, NW41%10000m1007hPa94%
27-Jun-2024 12:00Few Clouds14°C9 mph, NW20%10000m1010hPa85%
27-Jun-2024 15:00Clear Sky19°C11 mph, NW0%10000m1011hPa51%
27-Jun-2024 18:00Clear Sky21°C9 mph, NW2%10000m1011hPa42%
27-Jun-2024 21:00Few Clouds21°C13 mph, SW16%10000m1011hPa58%
28-Jun-2024 00:00Few Clouds17°C9 mph, W20%10000m1013hPa65%
28-Jun-2024 03:00Scattered Clouds14°C9 mph, NW26%10000m1015hPa62%
28-Jun-2024 06:00Few Clouds11°C9 mph, NE16%10000m1016hPa73%
28-Jun-2024 09:00Scattered Clouds10°C9 mph, NE50%10000m1018hPa67%
28-Jun-2024 12:00Broken Clouds15°C9 mph, E64%10000m1018hPa82%
28-Jun-2024 15:00Few Clouds19°C9 mph, S11%10000m1018hPa62%
28-Jun-2024 18:00Scattered Clouds21°C11 mph, SE25%10000m1017hPa57%
28-Jun-2024 21:00Broken Clouds21°C9 mph, SE68%10000m1015hPa66%
29-Jun-2024 00:00Broken Clouds19°C9 mph, E84%10000m1013hPa74%
29-Jun-2024 03:00Overcast Clouds20°C11 mph, SE100%10000m1012hPa76%
29-Jun-2024 06:00Light Rain20°C13 mph, S100%10000m1011hPa81%
29-Jun-2024 09:00Moderate Rain19°C18 mph, S100%5418m1010hPa98%
29-Jun-2024 12:00Light Rain19°C16 mph, SW100%10000m1010hPa96%
29-Jun-2024 15:00Light Rain19°C13 mph, SW100%10000m1010hPa97%
29-Jun-2024 18:00Light Rain20°C20 mph, SW100%10000m1009hPa98%
29-Jun-2024 21:00Moderate Rain20°C18 mph, SW100%6120m1008hPa98%
30-Jun-2024 00:00Light Rain20°C13 mph, SW100%10000m1008hPa98%
30-Jun-2024 03:00Light Rain19°C9 mph, W63%9183m1009hPa99%
30-Jun-2024 06:00Light Rain18°C7 mph, W61%10000m1010hPa97%
30-Jun-2024 09:00Scattered Clouds16°C11 mph, NW41%10000m1011hPa90%
30-Jun-2024 12:00Broken Clouds16°C13 mph, NW60%10000m1014hPa88%